sensor_id;sensor_type;location;lat;lon;timestamp;P1;P2;P0
13030;PMS7003;6582;54.644;9.760;2023-02-12T00:00:06;165.7;164.5;
13030;PMS7003;6582;54.644;9.760;2023-02-12T00:05:02;168.3;167.0;
13030;PMS7003;6582;54.644;9.760;2023-02-12T00:10:03;167.3;166.2;
13030;PMS7003;6582;54.644;9.760;2023-02-12T00:15:02;172.2;170.8;
13030;PMS7003;6582;54.644;9.760;2023-02-12T00:20:02;178.2;177.1;
13030;PMS7003;6582;54.644;9.760;2023-02-12T00:25:03;185.4;184.9;
13030;PMS7003;6582;54.644;9.760;2023-02-12T00:30:02;186.6;186.2;
13030;PMS7003;6582;54.644;9.760;2023-02-12T00:35:02;187.9;187.5;
13030;PMS7003;6582;54.644;9.760;2023-02-12T00:40:03;186.3;186.1;
13030;PMS7003;6582;54.644;9.760;2023-02-12T00:45:02;176.9;176.3;
13030;PMS7003;6582;54.644;9.760;2023-02-12T00:50:02;173.0;172.3;
13030;PMS7003;6582;54.644;9.760;2023-02-12T00:55:02;168.9;168.2;
13030;PMS7003;6582;54.644;9.760;2023-02-12T01:00:02;167.7;166.9;
13030;PMS7003;6582;54.644;9.760;2023-02-12T01:05:02;167.1;166.1;
13030;PMS7003;6582;54.644;9.760;2023-02-12T01:10:03;167.4;166.8;
13030;PMS7003;6582;54.644;9.760;2023-02-12T01:15:03;161.5;161.1;
13030;PMS7003;6582;54.644;9.760;2023-02-12T01:20:04;153.8;153.2;
13030;PMS7003;6582;54.644;9.760;2023-02-12T01:25:03;146.5;145.8;
13030;PMS7003;6582;54.644;9.760;2023-02-12T01:30:02;140.4;140.0;
13030;PMS7003;6582;54.644;9.760;2023-02-12T01:35:02;136.0;135.4;
13030;PMS7003;6582;54.644;9.760;2023-02-12T01:40:03;134.8;134.2;
13030;PMS7003;6582;54.644;9.760;2023-02-12T02:00:03;146.4;140.4;
13030;PMS7003;6582;54.644;9.760;2023-02-12T02:05:02;140.4;136.4;
13030;PMS7003;6582;54.644;9.760;2023-02-12T02:10:01;136.1;133.3;
13030;PMS7003;6582;54.644;9.760;2023-02-12T02:15:02;133.6;131.0;
13030;PMS7003;6582;54.644;9.760;2023-02-12T02:40:08;177.4;177.4;
13030;PMS7003;6582;54.644;9.760;2023-02-12T02:45:07;159.5;159.5;
13030;PMS7003;6582;54.644;9.760;2023-02-12T02:50:04;153.5;153.1;
13030;PMS7003;6582;54.644;9.760;2023-02-12T02:55:07;154.5;154.0;
13030;PMS7003;6582;54.644;9.760;2023-02-12T03:20:04;127.8;126.6;
13030;PMS7003;6582;54.644;9.760;2023-02-12T03:25:12;140.4;139.7;
13030;PMS7003;6582;54.644;9.760;2023-02-12T03:30:02;141.5;140.9;
13030;PMS7003;6582;54.644;9.760;2023-02-12T03:35:05;150.2;149.7;
13030;PMS7003;6582;54.644;9.760;2023-02-12T04:00:03;121.8;121.8;
13030;PMS7003;6582;54.644;9.760;2023-02-12T04:05:16;129.9;129.2;
13030;PMS7003;6582;54.644;9.760;2023-02-12T04:10:11;131.2;129.9;
13030;PMS7003;6582;54.644;9.760;2023-02-12T04:15:05;132.9;131.2;
13030;PMS7003;6582;54.644;9.760;2023-02-12T04:20:15;139.7;138.2;
13030;PMS7003;6582;54.644;9.760;2023-02-12T04:25:06;148.0;146.1;
13030;PMS7003;6582;54.644;9.760;2023-02-12T04:30:06;147.7;145.9;
13030;PMS7003;6582;54.644;9.760;2023-02-12T04:35:03;143.6;142.0;
13030;PMS7003;6582;54.644;9.760;2023-02-12T04:40:08;145.6;144.3;
13030;PMS7003;6582;54.644;9.760;2023-02-12T04:45:01;136.5;134.4;
13030;PMS7003;6582;54.644;9.760;2023-02-12T04:50:01;130.8;129.0;
13030;PMS7003;6582;54.644;9.760;2023-02-12T04:55:06;131.9;130.1;
13030;PMS7003;6582;54.644;9.760;2023-02-12T05:00:02;139.6;137.8;
13030;PMS7003;6582;54.644;9.760;2023-02-12T05:05:03;143.3;141.6;
13030;PMS7003;6582;54.644;9.760;2023-02-12T05:10:02;151.1;150.4;
13030;PMS7003;6582;54.644;9.760;2023-02-12T05:15:11;154.2;153.5;
13030;PMS7003;6582;54.644;9.760;2023-02-12T05:20:01;161.1;160.5;
13030;PMS7003;6582;54.644;9.760;2023-02-12T05:25:08;158.3;157.7;
13030;PMS7003;6582;54.644;9.760;2023-02-12T05:30:01;151.0;149.8;
13030;PMS7003;6582;54.644;9.760;2023-02-12T05:35:06;143.2;141.9;
13030;PMS7003;6582;54.644;9.760;2023-02-12T05:40:10;135.6;134.0;
13030;PMS7003;6582;54.644;9.760;2023-02-12T05:45:06;121.4;118.8;
13030;PMS7003;6582;54.644;9.760;2023-02-12T05:50:02;115.7;112.9;
13030;PMS7003;6582;54.644;9.760;2023-02-12T05:55:06;110.7;107.5;
13030;PMS7003;6582;54.644;9.760;2023-02-12T06:00:02;107.6;103.8;
13030;PMS7003;6582;54.644;9.760;2023-02-12T06:05:06;110.0;106.6;
13030;PMS7003;6582;54.644;9.760;2023-02-12T06:10:01;112.5;109.4;
13030;PMS7003;6582;54.644;9.760;2023-02-12T06:15:02;111.6;108.2;
13030;PMS7003;6582;54.644;9.760;2023-02-12T06:20:02;115.0;112.6;
13030;PMS7003;6582;54.644;9.760;2023-02-12T06:25:01;117.4;115.8;
13030;PMS7003;6582;54.644;9.760;2023-02-12T06:30:02;116.8;114.8;
13030;PMS7003;6582;54.644;9.760;2023-02-12T06:35:01;114.6;112.9;
13030;PMS7003;6582;54.644;9.760;2023-02-12T06:40:01;114.0;111.6;
13030;PMS7003;6582;54.644;9.760;2023-02-12T06:45:01;109.9;105.7;
13030;PMS7003;6582;54.644;9.760;2023-02-12T06:50:03;106.4;100.4;
13030;PMS7003;6582;54.644;9.760;2023-02-12T06:55:01;102.3;95.1;
13030;PMS7003;6582;54.644;9.760;2023-02-12T07:00:01;101.5;93.4;
13030;PMS7003;6582;54.644;9.760;2023-02-12T07:05:02;101.2;93.0;
13030;PMS7003;6582;54.644;9.760;2023-02-12T07:10:01;103.6;96.6;
13030;PMS7003;6582;54.644;9.760;2023-02-12T07:15:02;120.2;115.1;
13030;PMS7003;6582;54.644;9.760;2023-02-12T07:20:03;122.4;118.4;
13030;PMS7003;6582;54.644;9.760;2023-02-12T07:25:06;125.8;123.1;
13030;PMS7003;6582;54.644;9.760;2023-02-12T07:30:02;129.5;127.7;
13030;PMS7003;6582;54.644;9.760;2023-02-12T11:10:02;92.4;76.0;
13030;PMS7003;6582;54.644;9.760;2023-02-12T11:30:06;94.4;80.4;
13030;PMS7003;6582;54.644;9.760;2023-02-12T11:35:11;92.3;75.8;
13030;PMS7003;6582;54.644;9.760;2023-02-12T11:40:02;94.3;80.1;
13030;PMS7003;6582;54.644;9.760;2023-02-12T11:45:02;94.4;80.9;
13030;PMS7003;6582;54.644;9.760;2023-02-12T11:50:17;96.3;83.5;
13030;PMS7003;6582;54.644;9.760;2023-02-12T11:55:04;96.9;84.8;
13030;PMS7003;6582;54.644;9.760;2023-02-12T12:00:04;98.7;88.8;
13030;PMS7003;6582;54.644;9.760;2023-02-12T12:05:07;101.2;90.8;
13030;PMS7003;6582;54.644;9.760;2023-02-12T12:10:04;101.8;92.0;
13030;PMS7003;6582;54.644;9.760;2023-02-12T12:15:04;102.6;93.1;
13030;PMS7003;6582;54.644;9.760;2023-02-12T12:20:10;103.1;93.5;
13030;PMS7003;6582;54.644;9.760;2023-02-12T12:25:06;104.7;94.7;
13030;PMS7003;6582;54.644;9.760;2023-02-12T12:30:03;101.6;91.2;
13030;PMS7003;6582;54.644;9.760;2023-02-12T12:35:04;100.2;88.4;
13030;PMS7003;6582;54.644;9.760;2023-02-12T12:40:21;98.1;85.5;
13030;PMS7003;6582;54.644;9.760;2023-02-12T13:00:13;98.2;85.6;
13030;PMS7003;6582;54.644;9.760;2023-02-12T13:05:12;97.1;85.1;
13030;PMS7003;6582;54.644;9.760;2023-02-12T13:30:06;95.6;83.4;
13030;PMS7003;6582;54.644;9.760;2023-02-12T15:10:03;91.0;78.2;
13030;PMS7003;6582;54.644;9.760;2023-02-12T18:50:04;179.4;177.2;
13030;PMS7003;6582;54.644;9.760;2023-02-12T18:55:03;174.2;173.1;
13030;PMS7003;6582;54.644;9.760;2023-02-12T19:00:11;172.5;171.8;
13030;PMS7003;6582;54.644;9.760;2023-02-12T19:05:02;173.2;172.7;
13030;PMS7003;6582;54.644;9.760;2023-02-12T19:10:02;171.8;171.1;
13030;PMS7003;6582;54.644;9.760;2023-02-12T19:15:02;173.7;173.4;
13030;PMS7003;6582;54.644;9.760;2023-02-12T19:20:02;172.6;172.2;
13030;PMS7003;6582;54.644;9.760;2023-02-12T19:25:02;169.8;169.3;
13030;PMS7003;6582;54.644;9.760;2023-02-12T19:30:03;170.0;169.2;
13030;PMS7003;6582;54.644;9.760;2023-02-12T19:35:07;167.4;166.9;
13030;PMS7003;6582;54.644;9.760;2023-02-12T19:40:03;164.0;163.5;
13030;PMS7003;6582;54.644;9.760;2023-02-12T19:45:03;156.9;156.5;
13030;PMS7003;6582;54.644;9.760;2023-02-12T19:50:03;159.4;158.6;
13030;PMS7003;6582;54.644;9.760;2023-02-12T19:55:07;158.5;157.6;
13030;PMS7003;6582;54.644;9.760;2023-02-12T20:00:02;161.4;160.6;
13030;PMS7003;6582;54.644;9.760;2023-02-12T20:05:03;160.2;159.0;
13030;PMS7003;6582;54.644;9.760;2023-02-12T20:10:11;170.1;169.0;
13030;PMS7003;6582;54.644;9.760;2023-02-12T20:15:07;170.7;169.8;
13030;PMS7003;6582;54.644;9.760;2023-02-12T20:20:03;168.4;167.9;
13030;PMS7003;6582;54.644;9.760;2023-02-12T20:25:02;165.8;165.2;
13030;PMS7003;6582;54.644;9.760;2023-02-12T20:30:02;161.8;161.4;
13030;PMS7003;6582;54.644;9.760;2023-02-12T20:35:05;160.2;159.5;
13030;PMS7003;6582;54.644;9.760;2023-02-12T20:40:02;159.2;158.6;
13030;PMS7003;6582;54.644;9.760;2023-02-12T20:45:03;162.2;161.5;
13030;PMS7003;6582;54.644;9.760;2023-02-12T20:50:03;166.1;165.5;
13030;PMS7003;6582;54.644;9.760;2023-02-12T20:55:03;172.0;171.3;
13030;PMS7003;6582;54.644;9.760;2023-02-12T21:00:02;176.2;175.8;
13030;PMS7003;6582;54.644;9.760;2023-02-12T21:05:02;181.4;180.9;
13030;PMS7003;6582;54.644;9.760;2023-02-12T21:10:02;184.4;184.1;
13030;PMS7003;6582;54.644;9.760;2023-02-12T21:15:02;193.4;192.8;
13030;PMS7003;6582;54.644;9.760;2023-02-12T21:20:02;209.1;208.4;
13030;PMS7003;6582;54.644;9.760;2023-02-12T21:25:02;216.1;215.4;
13030;PMS7003;6582;54.644;9.760;2023-02-12T21:30:02;226.6;225.4;
13030;PMS7003;6582;54.644;9.760;2023-02-12T21:35:03;234.4;232.9;
13030;PMS7003;6582;54.644;9.760;2023-02-12T21:40:02;237.6;236.2;
13030;PMS7003;6582;54.644;9.760;2023-02-12T21:45:02;230.3;229.3;
13030;PMS7003;6582;54.644;9.760;2023-02-12T21:50:02;227.2;226.3;
13030;PMS7003;6582;54.644;9.760;2023-02-12T21:55:02;220.4;220.1;
13030;PMS7003;6582;54.644;9.760;2023-02-12T22:00:11;207.6;207.6;
13030;PMS7003;6582;54.644;9.760;2023-02-12T22:05:02;220.8;220.8;
13030;PMS7003;6582;54.644;9.760;2023-02-12T22:10:07;209.6;209.6;
13030;PMS7003;6582;54.644;9.760;2023-02-12T22:15:02;195.8;195.8;
13030;PMS7003;6582;54.644;9.760;2023-02-12T22:20:02;182.2;181.9;
13030;PMS7003;6582;54.644;9.760;2023-02-12T22:25:02;171.9;171.5;
13030;PMS7003;6582;54.644;9.760;2023-02-12T22:30:02;136.3;135.8;
13030;PMS7003;6582;54.644;9.760;2023-02-12T22:35:02;124.8;123.4;
13030;PMS7003;6582;54.644;9.760;2023-02-12T22:40:08;117.7;115.8;
13030;PMS7003;6582;54.644;9.760;2023-02-12T22:45:02;116.8;114.8;
13030;PMS7003;6582;54.644;9.760;2023-02-12T22:50:02;113.8;110.5;
13030;PMS7003;6582;54.644;9.760;2023-02-12T22:55:02;109.7;105.0;
13030;PMS7003;6582;54.644;9.760;2023-02-12T23:00:02;110.8;106.4;
13030;PMS7003;6582;54.644;9.760;2023-02-12T23:05:08;108.5;102.6;
13030;PMS7003;6582;54.644;9.760;2023-02-12T23:10:04;100.1;92.8;
13030;PMS7003;6582;54.644;9.760;2023-02-12T23:15:02;99.8;92.2;
13030;PMS7003;6582;54.644;9.760;2023-02-12T23:20:02;99.1;91.4;
13030;PMS7003;6582;54.644;9.760;2023-02-12T23:25:11;96.9;88.2;
13030;PMS7003;6582;54.644;9.760;2023-02-12T23:30:02;96.9;88.1;
13030;PMS7003;6582;54.644;9.760;2023-02-12T23:35:03;97.1;87.1;
13030;PMS7003;6582;54.644;9.760;2023-02-12T23:40:02;98.0;88.4;
13030;PMS7003;6582;54.644;9.760;2023-02-12T23:45:02;98.4;88.2;
13030;PMS7003;6582;54.644;9.760;2023-02-12T23:50:08;98.9;88.4;
13030;PMS7003;6582;54.644;9.760;2023-02-12T23:55:13;100.4;91.4;
